Time;durP1;ratioP1;P1;durP2;ratioP2;P2;SDS_P1;SDS_P2;PMS_P1;PMS_P2;Temp;Humidity;BMP_temperature;BMP_pressure;BME280_temperature;BME280_humidity;BME280_pressure;Samples;Min_cycle;Max_cycle;Signal;HPM_P1;HPM_P2
2023/12/16 00:02:16;;;;;;;10.30;4.50;;;8.50;99.90;;;;;;5053941;28;20470;-79
2023/12/16 00:04:43;;;;;;;10.07;4.90;;;8.50;99.90;;;;;;5053808;28;20498;-80
2023/12/16 00:07:12;;;;;;;13.10;4.67;;;8.50;99.90;;;;;;5056471;28;20975;-80
2023/12/16 00:09:40;;;;;;;10.40;4.43;;;8.50;99.90;;;;;;5056053;28;20485;-79
2023/12/16 00:12:07;;;;;;;11.17;5.03;;;8.50;99.90;;;;;;5056818;28;20872;-80
2023/12/16 00:14:36;;;;;;;6.77;4.50;;;8.40;99.90;;;;;;5057494;28;20457;-80
2023/12/16 00:17:03;;;;;;;10.53;4.23;;;8.50;99.90;;;;;;5051001;28;20487;-80
2023/12/16 00:19:30;;;;;;;12.33;5.20;;;8.40;99.90;;;;;;5055906;28;20494;-80
2023/12/16 00:21:57;;;;;;;8.87;4.50;;;8.40;99.90;;;;;;5058502;28;20457;-79
2023/12/16 00:24:23;;;;;;;16.90;5.70;;;8.40;99.90;;;;;;5056859;28;20527;-79
2023/12/16 00:26:53;;;;;;;10.20;4.77;;;8.30;99.90;;;;;;5050491;28;20460;-79
2023/12/16 00:29:19;;;;;;;16.67;5.97;;;8.30;99.90;;;;;;5055887;28;21012;-80
2023/12/16 00:31:46;;;;;;;12.47;5.00;;;8.30;99.90;;;;;;5053375;28;20465;-80
2023/12/16 00:34:13;;;;;;;10.13;4.87;;;8.40;99.90;;;;;;5052954;28;20829;-80
2023/12/16 00:36:41;;;;;;;14.30;5.77;;;8.40;99.90;;;;;;5056681;28;20884;-79
2023/12/16 00:39:09;;;;;;;13.93;5.43;;;8.40;99.90;;;;;;5053292;28;20505;-79
2023/12/16 00:41:36;;;;;;;11.93;4.50;;;8.40;99.90;;;;;;5047633;28;20551;-79
2023/12/16 00:44:04;;;;;;;12.67;4.60;;;8.40;99.90;;;;;;5042867;28;20820;-79
2023/12/16 00:46:31;;;;;;;13.17;5.50;;;8.40;99.90;;;;;;5054848;28;20818;-79
2023/12/16 00:49:07;;;;;;;14.17;5.30;;;8.40;99.90;;;;;;5047486;28;20470;-80
2023/12/16 00:51:34;;;;;;;15.50;5.60;;;8.40;99.90;;;;;;5047864;28;20449;-78
2023/12/16 00:54:01;;;;;;;12.13;5.80;;;8.30;99.90;;;;;;5056723;28;20458;-80
2023/12/16 00:56:27;;;;;;;9.40;4.80;;;8.40;99.90;;;;;;5056839;28;20501;-79
2023/12/16 00:58:56;;;;;;;13.17;5.17;;;8.40;99.90;;;;;;5056635;28;20541;-80
2023/12/16 01:01:25;;;;;;;19.90;6.00;;;8.40;99.90;;;;;;5056461;28;20454;-80
2023/12/16 01:03:52;;;;;;;16.07;6.13;;;8.30;99.90;;;;;;5052606;28;20459;-80
2023/12/16 01:06:19;;;;;;;11.70;5.50;;;8.30;99.90;;;;;;5053895;28;20462;-79
2023/12/16 01:08:46;;;;;;;15.43;5.50;;;8.40;99.90;;;;;;5056962;28;20493;-80
2023/12/16 01:11:13;;;;;;;12.33;5.20;;;8.40;99.90;;;;;;5056154;28;21004;-79
2023/12/16 01:13:39;;;;;;;13.63;5.23;;;8.40;99.90;;;;;;5056396;28;20455;-79
2023/12/16 01:16:07;;;;;;;13.70;5.03;;;8.40;99.90;;;;;;5056585;28;20523;-79
2023/12/16 01:18:35;;;;;;;10.80;4.90;;;8.50;99.90;;;;;;5056997;28;20542;-78
2023/12/16 01:21:05;;;;;;;9.80;4.30;;;8.30;99.90;;;;;;5066687;28;20526;-78
2023/12/16 01:23:32;;;;;;;12.53;5.80;;;8.30;99.90;;;;;;5064809;28;20454;-78
2023/12/16 01:25:59;;;;;;;8.27;4.90;;;8.40;99.90;;;;;;5050481;28;20461;-80
2023/12/16 01:28:26;;;;;;;9.73;4.37;;;8.40;99.90;;;;;;5051785;28;20462;-79
2023/12/16 01:30:52;;;;;;;13.90;6.10;;;8.40;99.90;;;;;;5057426;28;20576;-79
2023/12/16 01:33:19;;;;;;;10.57;5.43;;;8.40;99.90;;;;;;5057043;28;20920;-80
2023/12/16 01:35:47;;;;;;;12.90;5.60;;;8.30;99.90;;;;;;5060172;28;20457;-79
2023/12/16 01:38:14;;;;;;;44.07;7.83;;;8.40;99.90;;;;;;5061647;28;20887;-79
2023/12/16 01:40:41;;;;;;;15.27;5.40;;;8.30;99.90;;;;;;5057868;28;20477;-79
2023/12/16 01:43:10;;;;;;;9.83;5.40;;;8.40;99.90;;;;;;5055489;28;20471;-79
2023/12/16 01:45:37;;;;;;;10.87;4.63;;;8.30;99.90;;;;;;5060557;28;20453;-79
2023/12/16 01:48:06;;;;;;;7.17;5.17;;;8.30;99.90;;;;;;5060495;28;20456;-80
2023/12/16 01:50:34;;;;;;;13.70;4.83;;;8.40;99.90;;;;;;5052050;28;20521;-79
2023/12/16 01:53:04;;;;;;;10.93;5.13;;;8.50;99.90;;;;;;5061038;28;20486;-80
2023/12/16 01:55:31;;;;;;;12.40;5.80;;;8.50;99.90;;;;;;5059733;28;20453;-80
2023/12/16 01:57:58;;;;;;;11.40;5.67;;;8.50;99.90;;;;;;5059256;28;20489;-80
2023/12/16 02:00:25;;;;;;;20.80;5.53;;;8.50;99.90;;;;;;5058847;28;21000;-79
2023/12/16 02:02:52;;;;;;;11.53;5.60;;;8.50;99.90;;;;;;5055159;28;20456;-80
2023/12/16 02:05:20;;;;;;;13.70;5.17;;;8.50;99.90;;;;;;5059278;28;20509;-80
2023/12/16 02:07:46;;;;;;;13.07;5.27;;;8.50;99.90;;;;;;5058871;28;20465;-80
2023/12/16 02:10:15;;;;;;;11.70;5.20;;;8.60;99.90;;;;;;5057753;28;20485;-80
2023/12/16 02:12:43;;;;;;;10.00;4.83;;;8.50;99.90;;;;;;5058373;28;20457;-80
2023/12/16 02:15:10;;;;;;;13.80;7.20;;;8.60;99.90;;;;;;5058875;28;20461;-80
2023/12/16 02:17:37;;;;;;;8.80;4.83;;;8.40;99.90;;;;;;5058064;28;20487;-80
2023/12/16 02:20:05;;;;;;;9.60;5.03;;;8.50;99.90;;;;;;5052386;28;20486;-78
2023/12/16 02:22:32;;;;;;;10.73;4.23;;;8.50;99.90;;;;;;5056700;28;20452;-79
2023/12/16 02:25:01;;;;;;;8.27;4.30;;;8.60;99.90;;;;;;5058734;28;20552;-80
2023/12/16 02:27:31;;;;;;;9.47;3.90;;;8.50;99.90;;;;;;5058986;28;20455;-80
2023/12/16 02:29:57;;;;;;;14.20;4.97;;;8.60;99.90;;;;;;5057612;28;20478;-79
2023/12/16 02:32:24;;;;;;;14.97;4.43;;;8.50;99.90;;;;;;5058067;28;20544;-80
2023/12/16 02:34:51;;;;;;;12.57;4.43;;;8.50;99.90;;;;;;5058625;28;20462;-80
2023/12/16 02:37:18;;;;;;;14.17;4.80;;;8.50;99.90;;;;;;5058325;28;20569;-79
2023/12/16 02:39:44;;;;;;;12.20;4.77;;;8.50;99.90;;;;;;5058189;28;20477;-80
2023/12/16 02:42:12;;;;;;;9.97;4.97;;;8.50;99.90;;;;;;5058794;28;20470;-79
2023/12/16 02:44:39;;;;;;;8.67;3.77;;;8.50;99.90;;;;;;5058083;28;20847;-79
2023/12/16 02:47:07;;;;;;;11.53;4.30;;;8.50;99.90;;;;;;5057129;28;20468;-79
2023/12/16 02:49:34;;;;;;;11.00;3.83;;;8.60;99.90;;;;;;5057639;28;20474;-79
2023/12/16 02:52:01;;;;;;;6.17;4.27;;;8.60;99.90;;;;;;5058046;28;20455;-79
2023/12/16 02:54:29;;;;;;;11.87;4.40;;;8.60;99.90;;;;;;5058803;28;20454;-78
2023/12/16 02:56:56;;;;;;;10.63;4.07;;;8.60;99.90;;;;;;5058320;28;20481;-79
2023/12/16 02:59:24;;;;;;;10.70;4.03;;;8.60;99.90;;;;;;5057819;28;20489;-79
2023/12/16 03:01:50;;;;;;;8.13;3.67;;;8.60;99.90;;;;;;5058339;28;20958;-79
2023/12/16 03:04:20;;;;;;;8.63;3.57;;;8.60;99.90;;;;;;5059181;28;20956;-78
2023/12/16 03:06:47;;;;;;;14.63;4.20;;;8.50;99.90;;;;;;5059702;28;20517;-79
2023/12/16 03:09:14;;;;;;;11.67;3.70;;;8.40;99.90;;;;;;5058382;28;20533;-79
2023/12/16 03:11:41;;;;;;;10.73;3.80;;;8.50;99.90;;;;;;5058449;28;20519;-78
2023/12/16 03:14:07;;;;;;;7.40;3.30;;;8.50;99.90;;;;;;5059068;28;20463;-79
2023/12/16 03:16:36;;;;;;;6.10;3.30;;;8.50;99.90;;;;;;5050796;28;20459;-79
2023/12/16 03:19:02;;;;;;;8.97;3.40;;;8.50;99.90;;;;;;5056815;28;20518;-79
2023/12/16 03:21:31;;;;;;;8.00;3.90;;;8.40;99.90;;;;;;5051248;28;20468;-79
2023/12/16 03:23:58;;;;;;;9.77;5.20;;;8.40;99.90;;;;;;5057943;28;20454;-79
2023/12/16 03:26:25;;;;;;;11.37;3.43;;;8.40;99.90;;;;;;5057899;28;20456;-80
2023/12/16 03:28:52;;;;;;;8.27;3.30;;;8.40;99.90;;;;;;5058138;28;20477;-79
2023/12/16 03:31:18;;;;;;;9.60;4.30;;;8.40;99.90;;;;;;5049952;28;20465;-79
2023/12/16 03:33:46;;;;;;;14.47;3.80;;;8.50;99.90;;;;;;5057726;28;20848;-78
2023/12/16 03:36:13;;;;;;;6.40;3.00;;;8.50;99.90;;;;;;5058602;28;20453;-79
2023/12/16 03:38:41;;;;;;;9.93;2.80;;;8.60;99.90;;;;;;5057675;28;20994;-79
2023/12/16 03:41:08;;;;;;;7.17;2.53;;;8.60;99.90;;;;;;5058025;28;20458;-79
2023/12/16 03:43:35;;;;;;;7.30;3.00;;;8.60;99.90;;;;;;5057840;28;20529;-80
2023/12/16 03:46:07;;;;;;;11.10;4.40;;;8.60;99.90;;;;;;5057622;28;20466;-78
2023/12/16 03:48:34;;;;;;;11.10;3.87;;;8.60;99.90;;;;;;5057464;28;20450;-79
2023/12/16 03:51:02;;;;;;;7.70;3.43;;;8.60;99.90;;;;;;5059763;28;20460;-77
2023/12/16 03:53:29;;;;;;;13.87;2.67;;;8.60;99.90;;;;;;5058840;28;20972;-77
2023/12/16 03:55:56;;;;;;;6.80;2.57;;;8.60;99.90;;;;;;5059312;28;20458;-77
2023/12/16 03:58:23;;;;;;;9.03;3.00;;;8.60;99.90;;;;;;5058052;28;20483;-77
2023/12/16 04:00:49;;;;;;;6.63;2.10;;;8.60;99.90;;;;;;5053972;28;20461;-78
2023/12/16 04:03:16;;;;;;;7.77;2.80;;;8.60;99.90;;;;;;5058983;28;20456;-79
2023/12/16 04:05:43;;;;;;;9.73;3.30;;;8.60;99.90;;;;;;5054750;28;20462;-78
2023/12/16 04:08:11;;;;;;;7.93;2.50;;;8.60;99.90;;;;;;5056021;28;20462;-80
2023/12/16 04:10:38;;;;;;;6.90;2.63;;;8.50;99.90;;;;;;5056265;28;20477;-79
2023/12/16 04:13:11;;;;;;;7.90;2.60;;;8.50;99.90;;;;;;5056892;28;20468;-78
2023/12/16 04:15:38;;;;;;;9.93;3.00;;;8.50;99.90;;;;;;5054718;28;20469;-78
2023/12/16 04:18:05;;;;;;;7.50;2.77;;;8.40;99.90;;;;;;5053288;28;20495;-78
2023/12/16 04:20:31;;;;;;;14.60;4.07;;;8.40;99.90;;;;;;5054625;28;20470;-79
2023/12/16 04:22:58;;;;;;;7.10;2.63;;;8.40;99.90;;;;;;5054831;28;20454;-79
2023/12/16 04:25:26;;;;;;;7.97;2.93;;;8.40;99.90;;;;;;5047573;28;20882;-79
2023/12/16 04:27:53;;;;;;;6.83;2.87;;;8.40;99.90;;;;;;5057719;28;20470;-79
2023/12/16 04:30:20;;;;;;;9.83;3.10;;;8.50;99.90;;;;;;5056677;28;20505;-79
2023/12/16 04:32:47;;;;;;;8.33;2.90;;;8.30;99.90;;;;;;5048160;28;20458;-79
2023/12/16 04:35:14;;;;;;;9.63;3.30;;;8.30;99.90;;;;;;5056257;28;20537;-79
2023/12/16 04:37:40;;;;;;;6.30;2.47;;;8.20;99.90;;;;;;5054453;28;20527;-80
2023/12/16 04:40:12;;;;;;;10.00;2.67;;;8.30;99.90;;;;;;5055907;28;20893;-79
2023/12/16 04:42:43;;;;;;;8.60;2.30;;;8.20;99.90;;;;;;5056209;28;20456;-80
2023/12/16 04:45:12;;;;;;;8.03;3.20;;;8.30;99.90;;;;;;5056569;28;20459;-80
2023/12/16 04:47:39;;;;;;;12.87;2.57;;;8.30;99.90;;;;;;5047729;28;20462;-80
2023/12/16 04:50:07;;;;;;;12.30;2.23;;;8.30;99.90;;;;;;5055163;28;20484;-79
2023/12/16 04:52:33;;;;;;;10.30;3.70;;;8.30;99.90;;;;;;5056533;28;20544;-80
2023/12/16 04:55:00;;;;;;;7.20;2.47;;;8.30;99.90;;;;;;5055225;28;20841;-80
2023/12/16 04:57:27;;;;;;;6.47;2.43;;;8.30;99.90;;;;;;5060426;28;20501;-78
2023/12/16 04:59:55;;;;;;;8.63;3.10;;;8.20;99.90;;;;;;5057206;28;20486;-78
2023/12/16 05:02:22;;;;;;;5.63;2.83;;;8.10;99.90;;;;;;5057427;28;20540;-78
2023/12/16 05:04:49;;;;;;;8.47;2.97;;;8.10;99.90;;;;;;5054605;28;20464;-78
2023/12/16 05:07:15;;;;;;;9.13;2.73;;;8.10;99.90;;;;;;5049309;28;20465;-78
2023/12/16 05:09:42;;;;;;;9.43;2.50;;;8.10;99.90;;;;;;5053276;28;20487;-78
2023/12/16 05:12:09;;;;;;;10.27;2.60;;;8.10;99.90;;;;;;5054510;28;20460;-78
2023/12/16 05:14:36;;;;;;;10.20;2.67;;;8.20;99.90;;;;;;5055254;28;20466;-80
2023/12/16 05:17:04;;;;;;;10.00;2.60;;;8.10;99.90;;;;;;5054611;28;20538;-80
2023/12/16 05:19:31;;;;;;;12.70;4.10;;;8.20;99.90;;;;;;5036939;28;20500;-80
2023/12/16 05:21:58;;;;;;;11.83;3.37;;;8.30;99.90;;;;;;5036143;28;20458;-80
2023/12/16 05:24:24;;;;;;;11.60;3.47;;;8.30;99.90;;;;;;5056355;28;20477;-80
2023/12/16 05:26:51;;;;;;;6.70;3.17;;;8.30;99.90;;;;;;5054375;28;20461;-79
2023/12/16 05:29:18;;;;;;;15.03;2.90;;;8.30;99.90;;;;;;5054599;28;20844;-80
2023/12/16 05:31:45;;;;;;;9.87;3.50;;;8.20;99.90;;;;;;5055142;28;20456;-80
2023/12/16 05:34:13;;;;;;;9.97;3.37;;;8.20;99.90;;;;;;5044000;28;20459;-79
2023/12/16 05:36:40;;;;;;;4.90;2.70;;;8.30;99.90;;;;;;5055614;28;20463;-80
2023/12/16 05:39:07;;;;;;;10.60;3.23;;;8.30;99.90;;;;;;5054100;28;20995;-79
2023/12/16 05:41:34;;;;;;;12.90;3.20;;;8.30;99.90;;;;;;5055071;28;20465;-80
2023/12/16 05:44:00;;;;;;;19.33;3.70;;;8.20;99.90;;;;;;5053175;28;20448;-80
2023/12/16 05:46:28;;;;;;;14.97;3.07;;;8.20;99.90;;;;;;5057639;28;20466;-81
2023/12/16 05:49:01;;;;;;;7.80;3.30;;;8.20;99.90;;;;;;5055906;28;20477;-78
2023/12/16 05:51:44;;;;;;;7.03;2.97;;;8.30;99.90;;;;;;5056016;28;20909;-77
2023/12/16 05:54:13;;;;;;;11.67;3.43;;;8.20;99.90;;;;;;5047475;28;20453;-79
2023/12/16 05:56:40;;;;;;;7.37;3.43;;;8.30;99.90;;;;;;5055174;28;20454;-78
2023/12/16 05:59:07;;;;;;;8.80;3.40;;;8.20;99.90;;;;;;5053507;28;20496;-79
2023/12/16 06:01:34;;;;;;;7.00;3.00;;;8.20;99.90;;;;;;5055911;28;20484;-80
2023/12/16 06:04:01;;;;;;;9.47;3.17;;;8.30;99.90;;;;;;5054901;28;20840;-77
2023/12/16 06:06:28;;;;;;;11.03;2.90;;;8.20;99.90;;;;;;5055253;28;20457;-80
2023/12/16 06:08:56;;;;;;;11.50;2.70;;;8.30;99.90;;;;;;5049738;28;20477;-80
2023/12/16 06:11:22;;;;;;;7.33;3.50;;;8.40;99.90;;;;;;5059282;28;20461;-80
2023/12/16 06:13:50;;;;;;;9.40;2.77;;;8.30;99.90;;;;;;5059888;28;20547;-80
2023/12/16 06:16:17;;;;;;;10.30;3.50;;;8.40;99.90;;;;;;5050545;28;20487;-80
2023/12/16 06:18:44;;;;;;;8.27;2.90;;;8.40;99.90;;;;;;5040970;28;20523;-80
2023/12/16 06:21:11;;;;;;;10.20;3.20;;;8.40;99.90;;;;;;5053674;28;20501;-78
2023/12/16 06:23:38;;;;;;;7.40;2.70;;;8.30;99.90;;;;;;5059477;28;20452;-80
2023/12/16 06:26:06;;;;;;;9.57;3.17;;;8.30;99.90;;;;;;5060087;28;20458;-83
2023/12/16 06:28:33;;;;;;;7.07;2.87;;;8.40;99.90;;;;;;5054303;28;20459;-82
2023/12/16 06:31:01;;;;;;;7.03;2.50;;;8.40;99.90;;;;;;5052565;28;20457;-82
2023/12/16 06:33:28;;;;;;;6.27;2.33;;;8.50;99.90;;;;;;5059375;28;20528;-80
2023/12/16 06:35:55;;;;;;;9.20;2.97;;;8.50;99.90;;;;;;5053588;28;20462;-79
2023/12/16 06:38:21;;;;;;;15.17;4.00;;;8.40;99.90;;;;;;5064664;28;20487;-79
2023/12/16 06:40:48;;;;;;;8.73;2.80;;;8.30;99.90;;;;;;5058327;28;20477;-77
2023/12/16 06:46:33;;;;;;;10.30;2.57;;;8.30;99.90;;;;;;4934235;29;20463;-79
2023/12/16 06:49:15;;;;;;;12.57;3.17;;;8.20;99.90;;;;;;5103915;22;20481;-77
2023/12/16 06:52:24;;;;;;;12.37;3.60;;;8.20;99.90;;;;;;5064696;28;20458;-79
2023/12/16 06:54:54;;;;;;;9.13;2.93;;;8.20;99.90;;;;;;5050667;28;20461;-79
2023/12/16 06:57:21;;;;;;;8.57;2.40;;;8.30;99.90;;;;;;5072180;28;20450;-78
2023/12/16 07:00:28;;;;;;;6.67;2.43;;;8.30;99.90;;;;;;5093062;22;20501;-78
2023/12/16 07:02:56;;;;;;;8.83;3.23;;;8.30;99.90;;;;;;5009317;28;20490;-80
2023/12/16 07:05:38;;;;;;;;;;;;;;;;;;;;;
2023/12/16 07:08:05;;;;;;;14.33;3.83;;;8.40;99.90;;;;;;5012336;28;20457;-78
2023/12/16 07:10:32;;;;;;;9.23;3.83;;;8.30;99.90;;;;;;5009725;28;20533;-79
2023/12/16 07:12:59;;;;;;;11.10;3.00;;;8.30;99.90;;;;;;5014026;28;20480;-78
2023/12/16 07:15:26;;;;;;;9.43;2.97;;;8.30;99.90;;;;;;5012477;28;20459;-80
2023/12/16 07:17:53;;;;;;;7.00;2.63;;;8.30;99.90;;;;;;5011544;28;20467;-78
2023/12/16 07:20:21;;;;;;;15.83;3.63;;;8.30;99.90;;;;;;5010000;28;20481;-79
2023/12/16 07:22:47;;;;;;;6.00;2.43;;;8.40;99.90;;;;;;5013859;28;20450;-79
2023/12/16 07:25:14;;;;;;;9.90;3.50;;;8.40;99.90;;;;;;5009678;28;20452;-79
2023/12/16 07:30:47;;;;;;;12.77;3.37;;;8.40;99.90;;;;;;5091740;22;20495;-77
2023/12/16 07:33:14;;;;;;;11.67;2.87;;;8.40;99.90;;;;;;5053471;28;20460;-78
2023/12/16 07:41:25;;;;;;;10.50;3.00;;;8.30;99.90;;;;;;4998928;28;20530;-77
2023/12/16 07:43:52;;;;;;;14.50;3.33;;;8.20;99.90;;;;;;5034499;28;20490;-77
2023/12/16 07:46:36;;;;;;;6.90;2.90;;;8.30;99.90;;;;;;5040923;28;20465;-79
2023/12/16 07:49:12;;;;;;;7.90;2.83;;;8.40;99.90;;;;;;5037722;28;20463;-80
2023/12/16 07:51:43;;;;;;;5.70;2.43;;;8.40;99.90;;;;;;5033855;28;20466;-78
2023/12/16 07:54:11;;;;;;;12.93;3.30;;;8.30;99.90;;;;;;5049486;28;20938;-77
2023/12/16 07:56:37;;;;;;;9.27;3.07;;;8.30;99.90;;;;;;5034543;28;20470;-76
2023/12/16 07:59:04;;;;;;;10.97;2.93;;;8.30;99.90;;;;;;5035294;28;20498;-78
2023/12/16 08:01:31;;;;;;;7.67;3.13;;;8.20;99.90;;;;;;5034116;28;20544;-77
2023/12/16 08:03:58;;;;;;;7.70;2.90;;;8.30;99.90;;;;;;5033966;28;20456;-76
2023/12/16 08:06:25;;;;;;;10.87;2.97;;;8.20;99.90;;;;;;5037078;28;20833;-77
2023/12/16 08:08:53;;;;;;;12.83;3.30;;;8.20;99.90;;;;;;5037305;28;20838;-77
2023/12/16 08:11:19;;;;;;;6.70;2.90;;;8.20;99.90;;;;;;5042944;28;20456;-79
2023/12/16 08:13:46;;;;;;;8.50;3.07;;;8.10;99.90;;;;;;5034678;28;20991;-76
2023/12/16 08:16:47;;;;;;;6.30;3.07;;;8.00;99.90;;;;;;5036768;28;21138;-78
2023/12/16 08:21:49;;;;;;;9.13;3.20;;;8.00;99.90;;;;;;5498059;22;20492;-76
2023/12/16 08:24:17;;;;;;;14.53;3.50;;;7.90;99.90;;;;;;5070488;28;20443;-77
2023/12/16 08:26:48;;;;;;;8.10;4.00;;;7.90;99.90;;;;;;5068147;28;20454;-76
2023/12/16 08:29:15;;;;;;;8.13;2.93;;;7.90;99.90;;;;;;5056951;28;20462;-77
2023/12/16 08:31:42;;;;;;;18.00;4.20;;;7.90;99.90;;;;;;5054086;28;20452;-76
2023/12/16 08:34:08;;;;;;;6.33;3.17;;;7.90;99.90;;;;;;5053564;28;20453;-76
2023/12/16 08:36:35;;;;;;;13.70;4.87;;;8.00;99.90;;;;;;5057527;28;20535;-76
2023/12/16 08:39:02;;;;;;;21.90;7.67;;;8.00;99.90;;;;;;5055148;28;20493;-77
2023/12/16 08:41:30;;;;;;;10.43;4.00;;;8.00;99.90;;;;;;5056136;28;20453;-79
2023/12/16 08:43:57;;;;;;;11.43;3.33;;;8.10;99.90;;;;;;5059627;28;20445;-80
2023/12/16 08:46:25;;;;;;;10.20;3.57;;;8.10;99.90;;;;;;5059705;28;20450;-80
2023/12/16 08:52:27;;;;;;;7.67;3.30;;;8.20;99.90;;;;;;4974733;28;20440;-79
2023/12/16 08:54:54;;;;;;;9.17;3.10;;;8.20;99.90;;;;;;5039892;28;20457;-79
2023/12/16 08:57:22;;;;;;;17.23;3.20;;;8.30;99.90;;;;;;5059274;28;20453;-79
2023/12/16 08:59:49;;;;;;;7.87;2.80;;;8.40;99.90;;;;;;5057845;28;20503;-80
2023/12/16 09:02:16;;;;;;;6.87;4.20;;;8.40;99.90;;;;;;5057953;28;20567;-78
2023/12/16 09:04:42;;;;;;;11.33;3.30;;;8.60;99.90;;;;;;5056300;28;20545;-78
2023/12/16 09:07:09;;;;;;;10.60;3.37;;;8.80;99.90;;;;;;5060654;28;20457;-79
2023/12/16 09:09:36;;;;;;;8.57;2.97;;;9.00;99.90;;;;;;5060412;28;20552;-79
2023/12/16 09:12:03;;;;;;;6.47;2.63;;;9.10;99.90;;;;;;5055702;28;20454;-79
2023/12/16 09:14:32;;;;;;;6.80;2.43;;;9.20;99.90;;;;;;5057304;28;20469;-79
2023/12/16 09:17:28;;;;;;;11.27;3.23;;;9.40;99.90;;;;;;5059105;28;20453;-78
2023/12/16 09:20:22;;;;;;;12.83;3.43;;;9.50;99.90;;;;;;5050749;28;20933;-79
2023/12/16 09:22:49;;;;;;;8.13;3.00;;;9.70;99.90;;;;;;5039536;28;20550;-79
2023/12/16 09:27:57;;;;;;;9.00;3.07;;;9.50;99.90;;;;;;5051437;28;20450;-78
2023/12/16 09:30:25;;;;;;;18.10;3.63;;;9.60;99.90;;;;;;5060326;28;20554;-78
2023/12/16 09:32:59;;;;;;;11.33;3.33;;;9.50;99.90;;;;;;5058057;28;20446;-78
2023/12/16 09:35:26;;;;;;;12.30;3.17;;;9.50;99.90;;;;;;5058530;28;20440;-79
2023/12/16 09:37:53;;;;;;;5.80;2.63;;;9.60;99.90;;;;;;5061490;28;20461;-79
2023/12/16 09:40:20;;;;;;;9.20;2.80;;;9.60;99.90;;;;;;5057355;28;20505;-79
2023/12/16 09:42:52;;;;;;;6.27;2.40;;;9.70;99.90;;;;;;5050109;28;20530;-79
2023/12/16 09:45:19;;;;;;;6.47;2.57;;;9.80;99.90;;;;;;5053702;28;20553;-80
2023/12/16 09:47:49;;;;;;;18.40;3.40;;;9.90;99.90;;;;;;5060804;28;20791;-77
2023/12/16 09:50:16;;;;;;;5.90;2.50;;;10.00;99.90;;;;;;5050963;28;20486;-77
2023/12/16 09:52:44;;;;;;;9.47;2.47;;;10.10;99.90;;;;;;5054372;28;20474;-78
2023/12/16 09:55:15;;;;;;;8.87;2.60;;;10.30;99.90;;;;;;5055790;28;20465;-78
2023/12/16 09:57:44;;;;;;;12.57;3.70;;;10.30;99.90;;;;;;5056189;28;20469;-77
2023/12/16 10:00:17;;;;;;;11.33;4.33;;;10.30;99.90;;;;;;5051944;28;20497;-78
2023/12/16 10:02:47;;;;;;;8.20;2.23;;;10.00;99.90;;;;;;5065575;28;20459;-77
2023/12/16 10:05:17;;;;;;;10.83;3.37;;;10.20;99.90;;;;;;5059416;28;20447;-78
2023/12/16 10:07:44;;;;;;;6.60;2.90;;;10.20;99.90;;;;;;5059023;28;20451;-78
2023/12/16 10:10:15;;;;;;;8.87;2.70;;;10.40;99.90;;;;;;5059782;28;20478;-79
2023/12/16 10:12:43;;;;;;;7.50;2.90;;;10.40;99.90;;;;;;5061930;28;21752;-78
2023/12/16 10:15:10;;;;;;;10.87;3.00;;;10.50;99.90;;;;;;5059845;28;20448;-79
2023/12/16 10:17:38;;;;;;;11.00;3.10;;;10.50;99.90;;;;;;5054916;28;20464;-77
2023/12/16 10:20:07;;;;;;;15.97;3.73;;;10.50;99.90;;;;;;5048399;28;20491;-79
2023/12/16 10:22:35;;;;;;;7.57;2.40;;;10.30;99.90;;;;;;5054270;28;20494;-78
2023/12/16 10:25:04;;;;;;;9.43;2.83;;;10.50;99.90;;;;;;5052916;28;20551;-77
2023/12/16 10:27:30;;;;;;;10.93;3.23;;;10.80;99.90;;;;;;5047612;28;20467;-76
2023/12/16 10:29:59;;;;;;;17.60;4.50;;;11.00;99.90;;;;;;5055856;28;20493;-78
2023/12/16 10:32:27;;;;;;;11.47;3.87;;;11.10;99.90;;;;;;5055208;28;20481;-77
2023/12/16 10:34:55;;;;;;;83.23;33.17;;;11.10;99.90;;;;;;5060326;28;20458;-78
2023/12/16 10:37:23;;;;;;;17.30;6.37;;;11.00;99.90;;;;;;5058745;28;20465;-79
2023/12/16 10:39:51;;;;;;;13.30;2.90;;;10.90;99.90;;;;;;5058797;28;20517;-79
2023/12/16 10:42:18;;;;;;;10.37;2.63;;;10.90;99.90;;;;;;5059486;28;20452;-78
2023/12/16 10:44:45;;;;;;;9.70;3.33;;;10.80;99.90;;;;;;5053029;28;20824;-78
2023/12/16 10:47:17;;;;;;;8.10;3.20;;;10.60;99.90;;;;;;5058466;28;20446;-79
2023/12/16 10:49:45;;;;;;;12.80;3.00;;;10.50;99.90;;;;;;5054522;28;20478;-79
2023/12/16 10:52:14;;;;;;;11.33;4.20;;;10.40;99.90;;;;;;5056114;28;20448;-78
2023/12/16 10:54:42;;;;;;;13.20;2.73;;;10.30;99.90;;;;;;5056814;28;20498;-79
2023/12/16 10:57:20;;;;;;;11.40;3.10;;;10.40;99.90;;;;;;5062014;28;20530;-79
2023/12/16 10:59:59;;;;;;;6.80;2.40;;;10.40;99.90;;;;;;5062666;28;20487;-78
2023/12/16 11:02:28;;;;;;;7.47;2.67;;;10.30;99.90;;;;;;5060223;28;21053;-77
2023/12/16 11:05:01;;;;;;;7.23;2.50;;;10.30;99.90;;;;;;5061119;28;20535;-79
2023/12/16 11:07:29;;;;;;;11.90;3.17;;;10.30;99.90;;;;;;5061185;28;20465;-78
2023/12/16 11:09:56;;;;;;;9.20;3.10;;;10.10;99.90;;;;;;5060358;28;20520;-79
2023/12/16 11:12:25;;;;;;;14.70;3.40;;;10.00;99.90;;;;;;5060219;28;20983;-79
2023/12/16 11:14:54;;;;;;;14.00;3.53;;;10.00;99.90;;;;;;5055204;28;20456;-79
2023/12/16 11:17:28;;;;;;;6.87;2.77;;;9.90;99.90;;;;;;5057458;28;20462;-78
2023/12/16 11:19:59;;;;;;;9.60;3.10;;;9.90;99.90;;;;;;5055584;28;20945;-78
2023/12/16 11:22:26;;;;;;;12.37;3.10;;;10.00;99.90;;;;;;5049261;28;20474;-79
2023/12/16 11:24:53;;;;;;;12.50;2.97;;;10.00;99.90;;;;;;5051339;28;20463;-77
2023/12/16 11:27:20;;;;;;;9.80;4.27;;;10.00;99.90;;;;;;5049265;28;20484;-82
2023/12/16 11:29:49;;;;;;;9.60;2.70;;;10.00;99.90;;;;;;5053651;28;20474;-78
2023/12/16 11:32:16;;;;;;;9.03;3.00;;;10.00;99.90;;;;;;5048835;28;20854;-79
2023/12/16 11:34:44;;;;;;;7.27;2.50;;;10.00;99.90;;;;;;5051683;28;20839;-78
2023/12/16 11:37:36;;;;;;;14.80;4.10;;;10.00;99.90;;;;;;5052480;28;20457;-77
2023/12/16 11:40:52;;;;;;;8.03;2.87;;;10.00;99.90;;;;;;5045799;22;20495;-77
2023/12/16 11:43:58;;;;;;;13.73;4.13;;;10.10;99.90;;;;;;5072787;28;20458;-78
2023/12/16 11:46:58;;;;;;;12.50;4.13;;;10.10;99.90;;;;;;5056022;28;20458;-77
2023/12/16 11:49:33;;;;;;;9.37;3.00;;;10.00;99.90;;;;;;5021401;28;20486;-77
2023/12/16 11:52:00;;;;;;;12.13;2.73;;;10.10;99.90;;;;;;5024624;28;20497;-77
2023/12/16 11:54:29;;;;;;;11.33;2.77;;;10.00;99.90;;;;;;5062265;28;20434;-79
2023/12/16 11:57:04;;;;;;;17.00;3.67;;;10.00;99.90;;;;;;5056460;28;20947;-78
2023/12/16 11:59:31;;;;;;;8.87;3.20;;;10.00;99.90;;;;;;5043691;28;20536;-77
2023/12/16 12:01:59;;;;;;;7.90;3.10;;;10.00;99.90;;;;;;5049324;28;20497;-79
2023/12/16 12:04:26;;;;;;;7.97;2.97;;;10.10;99.90;;;;;;5052867;28;20494;-78
2023/12/16 12:06:53;;;;;;;9.27;2.97;;;10.10;99.90;;;;;;5039324;28;20452;-78
2023/12/16 12:09:20;;;;;;;9.50;2.60;;;10.10;99.90;;;;;;5039437;28;20866;-78
2023/12/16 12:11:47;;;;;;;13.37;3.10;;;10.20;99.90;;;;;;5042652;28;20830;-77
2023/12/16 12:14:29;;;;;;;7.23;3.50;;;10.00;99.90;;;;;;5046146;28;20500;-76
2023/12/16 12:17:04;;;;;;;7.13;2.70;;;10.00;99.90;;;;;;5029963;28;20458;-77
2023/12/16 12:19:31;;;;;;;13.67;2.70;;;10.10;99.90;;;;;;5048211;28;20473;-78
2023/12/16 12:21:57;;;;;;;12.90;3.30;;;10.30;99.90;;;;;;5053097;28;20456;-78
2023/12/16 12:24:24;;;;;;;10.33;2.80;;;10.50;99.90;;;;;;5045888;28;20989;-78
2023/12/16 12:26:52;;;;;;;9.87;2.50;;;10.70;99.90;;;;;;5046308;28;20454;-78
2023/12/16 12:29:19;;;;;;;9.43;3.27;;;10.70;99.90;;;;;;5046701;28;20561;-81
2023/12/16 12:31:48;;;;;;;11.03;3.10;;;10.70;99.90;;;;;;5042307;28;20456;-78
2023/12/16 12:34:21;;;;;;;9.67;3.40;;;10.60;99.90;;;;;;5040935;28;20449;-77
2023/12/16 12:36:55;;;;;;;5.43;2.13;;;10.70;99.90;;;;;;5047701;28;21060;-76
2023/12/16 12:39:22;;;;;;;9.53;3.60;;;10.90;99.90;;;;;;5043253;28;20485;-77
2023/12/16 12:42:00;;;;;;;10.17;2.57;;;10.90;99.90;;;;;;5041364;28;20837;-77
2023/12/16 12:44:27;;;;;;;11.13;3.20;;;10.90;99.90;;;;;;5041760;28;20465;-76
2023/12/16 12:46:58;;;;;;;11.40;2.57;;;10.80;99.90;;;;;;5051476;28;20975;-77
2023/12/16 12:50:03;;;;;;;;;;;;;;;;;;;;;
2023/12/16 12:52:37;;;;;;;12.83;3.27;;;10.70;99.90;;;;;;5046483;28;20959;-77
2023/12/16 12:55:05;;;;;;;13.43;3.10;;;10.50;99.90;;;;;;5044195;28;20461;-77
2023/12/16 12:57:32;;;;;;;10.53;2.80;;;10.50;99.90;;;;;;5048256;28;20524;-75
2023/12/16 13:00:03;;;;;;;16.03;3.60;;;10.40;99.90;;;;;;5046054;28;21041;-77
2023/12/16 13:02:29;;;;;;;12.40;3.43;;;10.30;99.90;;;;;;5047475;28;20549;-77
2023/12/16 13:04:57;;;;;;;7.70;2.90;;;10.40;99.90;;;;;;5042433;28;20541;-77
2023/12/16 13:07:24;;;;;;;9.83;2.93;;;10.40;99.90;;;;;;5048389;28;20457;-77
2023/12/16 13:09:51;;;;;;;10.63;2.93;;;10.40;99.90;;;;;;5046478;28;20476;-77
2023/12/16 13:12:18;;;;;;;14.57;3.40;;;10.40;99.90;;;;;;5047951;28;20535;-76
2023/12/16 13:14:45;;;;;;;15.20;3.30;;;10.40;99.90;;;;;;5046900;28;20450;-78
2023/12/16 13:17:12;;;;;;;8.93;2.97;;;10.40;99.90;;;;;;5046489;28;20456;-77
2023/12/16 13:19:40;;;;;;;9.93;3.50;;;10.30;99.90;;;;;;5044751;28;20823;-76
2023/12/16 13:22:10;;;;;;;18.80;4.00;;;10.40;99.90;;;;;;5043632;28;20437;-78